sensor_id;sensor_type;location;lat;lon;timestamp;P1;durP1;ratioP1;P2;durP2;ratioP2
6775;SDS011;3425;51.376;5.222;2024-02-16T00:00:08;0.80;;;0.80;;
6775;SDS011;3425;51.376;5.222;2024-02-16T00:02:39;0.80;;;0.80;;
6775;SDS011;3425;51.376;5.222;2024-02-16T00:05:10;1.00;;;1.00;;
6775;SDS011;3425;51.376;5.222;2024-02-16T00:07:38;0.80;;;0.80;;
6775;SDS011;3425;51.376;5.222;2024-02-16T00:10:06;0.80;;;0.80;;
6775;SDS011;3425;51.376;5.222;2024-02-16T00:12:33;0.90;;;0.90;;
6775;SDS011;3425;51.376;5.222;2024-02-16T00:15:01;0.98;;;0.98;;
6775;SDS011;3425;51.376;5.222;2024-02-16T00:17:28;0.85;;;0.85;;
6775;SDS011;3425;51.376;5.222;2024-02-16T00:19:56;0.80;;;0.80;;
6775;SDS011;3425;51.376;5.222;2024-02-16T00:22:23;0.98;;;0.98;;
6775;SDS011;3425;51.376;5.222;2024-02-16T00:24:51;1.02;;;0.93;;
6775;SDS011;3425;51.376;5.222;2024-02-16T00:27:18;3.40;;;1.67;;
6775;SDS011;3425;51.376;5.222;2024-02-16T00:29:46;0.60;;;0.60;;
6775;SDS011;3425;51.376;5.222;2024-02-16T00:32:13;0.80;;;0.80;;
6775;SDS011;3425;51.376;5.222;2024-02-16T00:34:41;0.80;;;0.80;;
6775;SDS011;3425;51.376;5.222;2024-02-16T00:37:08;0.80;;;0.80;;
6775;SDS011;3425;51.376;5.222;2024-02-16T00:39:38;0.60;;;0.60;;
6775;SDS011;3425;51.376;5.222;2024-02-16T00:42:08;1.27;;;0.95;;
6775;SDS011;3425;51.376;5.222;2024-02-16T00:44:37;0.90;;;0.90;;
6775;SDS011;3425;51.376;5.222;2024-02-16T00:47:05;0.77;;;0.77;;
6775;SDS011;3425;51.376;5.222;2024-02-16T00:49:32;1.35;;;1.15;;
6775;SDS011;3425;51.376;5.222;2024-02-16T00:52:00;0.60;;;0.60;;
6775;SDS011;3425;51.376;5.222;2024-02-16T00:54:28;0.60;;;0.60;;
6775;SDS011;3425;51.376;5.222;2024-02-16T00:56:55;3.13;;;0.70;;
6775;SDS011;3425;51.376;5.222;2024-02-16T00:59:29;1.15;;;1.05;;
6775;SDS011;3425;51.376;5.222;2024-02-16T01:01:56;1.25;;;1.15;;
6775;SDS011;3425;51.376;5.222;2024-02-16T01:04:23;0.60;;;0.60;;
6775;SDS011;3425;51.376;5.222;2024-02-16T01:06:50;2.30;;;1.45;;
6775;SDS011;3425;51.376;5.222;2024-02-16T01:09:18;0.70;;;0.70;;
6775;SDS011;3425;51.376;5.222;2024-02-16T01:11:45;0.60;;;0.60;;
6775;SDS011;3425;51.376;5.222;2024-02-16T01:14:14;0.88;;;0.88;;
6775;SDS011;3425;51.376;5.222;2024-02-16T01:16:41;0.50;;;0.50;;
6775;SDS011;3425;51.376;5.222;2024-02-16T01:19:08;0.68;;;0.68;;
6775;SDS011;3425;51.376;5.222;2024-02-16T01:21:36;0.73;;;0.73;;
6775;SDS011;3425;51.376;5.222;2024-02-16T01:24:04;1.02;;;1.02;;
6775;SDS011;3425;51.376;5.222;2024-02-16T01:26:31;1.02;;;1.02;;
6775;SDS011;3425;51.376;5.222;2024-02-16T01:28:59;0.63;;;0.63;;
6775;SDS011;3425;51.376;5.222;2024-02-16T01:31:28;0.60;;;0.60;;
6775;SDS011;3425;51.376;5.222;2024-02-16T01:33:56;0.70;;;0.70;;
6775;SDS011;3425;51.376;5.222;2024-02-16T01:36:23;0.70;;;0.70;;
6775;SDS011;3425;51.376;5.222;2024-02-16T01:38:51;0.70;;;0.70;;
6775;SDS011;3425;51.376;5.222;2024-02-16T01:41:18;0.70;;;0.70;;
6775;SDS011;3425;51.376;5.222;2024-02-16T01:43:45;0.60;;;0.60;;
6775;SDS011;3425;51.376;5.222;2024-02-16T01:46:13;0.80;;;0.80;;
6775;SDS011;3425;51.376;5.222;2024-02-16T01:48:40;2.53;;;1.05;;
6775;SDS011;3425;51.376;5.222;2024-02-16T01:51:08;1.00;;;1.00;;
6775;SDS011;3425;51.376;5.222;2024-02-16T01:53:36;1.65;;;1.35;;
6775;SDS011;3425;51.376;5.222;2024-02-16T01:56:03;0.77;;;0.77;;
6775;SDS011;3425;51.376;5.222;2024-02-16T01:58:31;1.02;;;1.02;;
6775;SDS011;3425;51.376;5.222;2024-02-16T02:00:58;0.75;;;0.75;;
6775;SDS011;3425;51.376;5.222;2024-02-16T02:03:25;0.60;;;0.60;;
6775;SDS011;3425;51.376;5.222;2024-02-16T02:05:53;0.70;;;0.70;;
6775;SDS011;3425;51.376;5.222;2024-02-16T02:08:22;1.08;;;1.08;;
6775;SDS011;3425;51.376;5.222;2024-02-16T02:10:50;5.25;;;1.73;;
6775;SDS011;3425;51.376;5.222;2024-02-16T02:13:17;0.60;;;0.60;;
6775;SDS011;3425;51.376;5.222;2024-02-16T02:15:45;1.42;;;0.98;;
6775;SDS011;3425;51.376;5.222;2024-02-16T02:18:13;3.13;;;1.50;;
6775;SDS011;3425;51.376;5.222;2024-02-16T02:20:40;1.02;;;1.00;;
6775;SDS011;3425;51.376;5.222;2024-02-16T02:23:08;0.60;;;0.60;;
6775;SDS011;3425;51.376;5.222;2024-02-16T02:25:36;0.70;;;0.70;;
6775;SDS011;3425;51.376;5.222;2024-02-16T02:28:03;1.58;;;1.05;;
6775;SDS011;3425;51.376;5.222;2024-02-16T02:30:30;0.80;;;0.80;;
6775;SDS011;3425;51.376;5.222;2024-02-16T02:32:58;0.77;;;0.77;;
6775;SDS011;3425;51.376;5.222;2024-02-16T02:35:25;1.00;;;0.90;;
6775;SDS011;3425;51.376;5.222;2024-02-16T02:37:53;1.70;;;1.20;;
6775;SDS011;3425;51.376;5.222;2024-02-16T02:40:20;65.53;;;3.72;;
6775;SDS011;3425;51.376;5.222;2024-02-16T02:42:47;0.75;;;0.75;;
6775;SDS011;3425;51.376;5.222;2024-02-16T02:45:14;0.85;;;0.85;;
6775;SDS011;3425;51.376;5.222;2024-02-16T02:47:42;0.70;;;0.70;;
6775;SDS011;3425;51.376;5.222;2024-02-16T02:50:09;0.70;;;0.70;;
6775;SDS011;3425;51.376;5.222;2024-02-16T02:52:37;0.50;;;0.50;;
6775;SDS011;3425;51.376;5.222;2024-02-16T02:55:04;0.80;;;0.80;;
6775;SDS011;3425;51.376;5.222;2024-02-16T02:57:31;0.70;;;0.70;;
6775;SDS011;3425;51.376;5.222;2024-02-16T03:00:05;0.70;;;0.70;;
6775;SDS011;3425;51.376;5.222;2024-02-16T03:02:37;0.77;;;0.77;;
6775;SDS011;3425;51.376;5.222;2024-02-16T03:05:05;0.80;;;0.80;;
6775;SDS011;3425;51.376;5.222;2024-02-16T03:07:35;0.50;;;0.50;;
6775;SDS011;3425;51.376;5.222;2024-02-16T03:10:03;1.23;;;1.13;;
6775;SDS011;3425;51.376;5.222;2024-02-16T03:12:31;0.65;;;0.65;;
6775;SDS011;3425;51.376;5.222;2024-02-16T03:14:59;1.08;;;1.08;;
6775;SDS011;3425;51.376;5.222;2024-02-16T03:17:26;1.85;;;1.10;;
6775;SDS011;3425;51.376;5.222;2024-02-16T03:19:54;0.60;;;0.60;;
6775;SDS011;3425;51.376;5.222;2024-02-16T03:22:22;0.70;;;0.70;;
6775;SDS011;3425;51.376;5.222;2024-02-16T03:24:49;0.90;;;0.90;;
6775;SDS011;3425;51.376;5.222;2024-02-16T03:27:16;1.05;;;1.05;;
6775;SDS011;3425;51.376;5.222;2024-02-16T03:29:44;0.75;;;0.75;;
6775;SDS011;3425;51.376;5.222;2024-02-16T03:32:12;0.75;;;0.75;;
6775;SDS011;3425;51.376;5.222;2024-02-16T03:34:39;0.60;;;0.60;;
6775;SDS011;3425;51.376;5.222;2024-02-16T03:37:07;0.90;;;0.90;;
6775;SDS011;3425;51.376;5.222;2024-02-16T03:39:35;0.73;;;0.73;;
6775;SDS011;3425;51.376;5.222;2024-02-16T03:42:04;0.60;;;0.60;;
6775;SDS011;3425;51.376;5.222;2024-02-16T03:44:31;0.60;;;0.60;;
6775;SDS011;3425;51.376;5.222;2024-02-16T03:46:58;0.60;;;0.60;;
6775;SDS011;3425;51.376;5.222;2024-02-16T03:49:26;1.75;;;1.55;;
6775;SDS011;3425;51.376;5.222;2024-02-16T03:51:54;1.83;;;1.73;;
6775;SDS011;3425;51.376;5.222;2024-02-16T03:54:21;0.80;;;0.80;;
6775;SDS011;3425;51.376;5.222;2024-02-16T03:56:52;0.70;;;0.70;;
6775;SDS011;3425;51.376;5.222;2024-02-16T03:59:19;0.90;;;0.90;;
6775;SDS011;3425;51.376;5.222;2024-02-16T04:01:46;0.80;;;0.80;;
6775;SDS011;3425;51.376;5.222;2024-02-16T04:04:13;0.80;;;0.80;;
6775;SDS011;3425;51.376;5.222;2024-02-16T04:06:41;2.38;;;1.35;;
6775;SDS011;3425;51.376;5.222;2024-02-16T04:09:08;0.70;;;0.70;;
6775;SDS011;3425;51.376;5.222;2024-02-16T04:11:36;1.73;;;1.33;;
6775;SDS011;3425;51.376;5.222;2024-02-16T04:14:04;0.70;;;0.70;;
6775;SDS011;3425;51.376;5.222;2024-02-16T04:16:31;0.70;;;0.70;;
6775;SDS011;3425;51.376;5.222;2024-02-16T04:18:58;1.23;;;1.17;;
6775;SDS011;3425;51.376;5.222;2024-02-16T04:21:26;0.80;;;0.80;;
6775;SDS011;3425;51.376;5.222;2024-02-16T04:23:53;0.80;;;0.80;;
6775;SDS011;3425;51.376;5.222;2024-02-16T04:26:20;0.80;;;0.80;;
6775;SDS011;3425;51.376;5.222;2024-02-16T04:28:47;1.58;;;1.00;;
6775;SDS011;3425;51.376;5.222;2024-02-16T04:31:14;1.30;;;1.30;;
6775;SDS011;3425;51.376;5.222;2024-02-16T04:33:42;1.00;;;1.00;;
6775;SDS011;3425;51.376;5.222;2024-02-16T04:36:10;0.75;;;0.75;;
6775;SDS011;3425;51.376;5.222;2024-02-16T04:38:37;0.73;;;0.73;;
6775;SDS011;3425;51.376;5.222;2024-02-16T04:41:04;0.80;;;0.80;;
6775;SDS011;3425;51.376;5.222;2024-02-16T04:43:32;1.42;;;1.33;;
6775;SDS011;3425;51.376;5.222;2024-02-16T04:46:00;0.80;;;0.80;;
6775;SDS011;3425;51.376;5.222;2024-02-16T04:48:27;0.70;;;0.70;;
6775;SDS011;3425;51.376;5.222;2024-02-16T04:50:55;1.35;;;1.27;;
6775;SDS011;3425;51.376;5.222;2024-02-16T04:53:22;0.88;;;0.88;;
6775;SDS011;3425;51.376;5.222;2024-02-16T04:55:49;1.02;;;1.02;;
6775;SDS011;3425;51.376;5.222;2024-02-16T04:58:16;0.70;;;0.70;;
6775;SDS011;3425;51.376;5.222;2024-02-16T05:00:44;9.43;;;2.15;;
6775;SDS011;3425;51.376;5.222;2024-02-16T05:03:13;1.10;;;1.10;;
6775;SDS011;3425;51.376;5.222;2024-02-16T05:05:40;1.02;;;1.02;;
6775;SDS011;3425;51.376;5.222;2024-02-16T05:08:07;8.52;;;2.83;;
6775;SDS011;3425;51.376;5.222;2024-02-16T05:10:35;9.52;;;1.88;;
6775;SDS011;3425;51.376;5.222;2024-02-16T05:13:02;1.30;;;1.25;;
6775;SDS011;3425;51.376;5.222;2024-02-16T05:15:29;0.82;;;0.82;;
6775;SDS011;3425;51.376;5.222;2024-02-16T05:17:57;0.90;;;0.90;;
6775;SDS011;3425;51.376;5.222;2024-02-16T05:20:25;0.90;;;0.90;;
6775;SDS011;3425;51.376;5.222;2024-02-16T05:22:52;1.60;;;1.50;;
6775;SDS011;3425;51.376;5.222;2024-02-16T05:25:19;0.90;;;0.90;;
6775;SDS011;3425;51.376;5.222;2024-02-16T05:27:47;1.75;;;1.50;;
6775;SDS011;3425;51.376;5.222;2024-02-16T05:30:14;1.45;;;1.35;;
6775;SDS011;3425;51.376;5.222;2024-02-16T05:32:42;1.70;;;1.60;;
6775;SDS011;3425;51.376;5.222;2024-02-16T05:35:11;0.90;;;0.90;;
6775;SDS011;3425;51.376;5.222;2024-02-16T05:37:40;1.45;;;1.45;;
6775;SDS011;3425;51.376;5.222;2024-02-16T05:40:10;1.08;;;1.08;;
6775;SDS011;3425;51.376;5.222;2024-02-16T05:42:55;1.55;;;1.55;;
6775;SDS011;3425;51.376;5.222;2024-02-16T05:45:25;2.40;;;1.52;;
6775;SDS011;3425;51.376;5.222;2024-02-16T05:47:53;1.20;;;1.20;;
6775;SDS011;3425;51.376;5.222;2024-02-16T05:50:21;1.20;;;1.20;;
6775;SDS011;3425;51.376;5.222;2024-02-16T05:52:49;2.60;;;1.65;;
6775;SDS011;3425;51.376;5.222;2024-02-16T05:55:18;1.20;;;1.20;;
6775;SDS011;3425;51.376;5.222;2024-02-16T05:57:45;1.20;;;1.20;;
6775;SDS011;3425;51.376;5.222;2024-02-16T06:00:13;1.25;;;1.25;;
6775;SDS011;3425;51.376;5.222;2024-02-16T06:02:42;1.27;;;1.27;;
6775;SDS011;3425;51.376;5.222;2024-02-16T06:05:09;1.50;;;1.40;;
6775;SDS011;3425;51.376;5.222;2024-02-16T06:07:37;1.52;;;1.50;;
6775;SDS011;3425;51.376;5.222;2024-02-16T06:10:05;1.17;;;1.10;;
6775;SDS011;3425;51.376;5.222;2024-02-16T06:12:37;1.10;;;1.10;;
6775;SDS011;3425;51.376;5.222;2024-02-16T06:15:05;1.20;;;1.20;;
6775;SDS011;3425;51.376;5.222;2024-02-16T06:17:32;1.10;;;1.10;;
6775;SDS011;3425;51.376;5.222;2024-02-16T06:20:00;2.92;;;1.30;;
6775;SDS011;3425;51.376;5.222;2024-02-16T06:22:28;1.00;;;1.00;;
6775;SDS011;3425;51.376;5.222;2024-02-16T06:24:57;2.60;;;2.40;;
6775;SDS011;3425;51.376;5.222;2024-02-16T06:27:24;1.50;;;1.48;;
6775;SDS011;3425;51.376;5.222;2024-02-16T06:29:52;1.33;;;1.33;;
6775;SDS011;3425;51.376;5.222;2024-02-16T06:32:19;1.27;;;1.27;;
6775;SDS011;3425;51.376;5.222;2024-02-16T06:34:46;1.10;;;1.10;;
6775;SDS011;3425;51.376;5.222;2024-02-16T06:37:14;1.40;;;1.40;;
6775;SDS011;3425;51.376;5.222;2024-02-16T06:39:41;1.50;;;1.50;;
6775;SDS011;3425;51.376;5.222;2024-02-16T06:42:09;1.55;;;1.55;;
6775;SDS011;3425;51.376;5.222;2024-02-16T06:44:39;1.42;;;1.42;;
6775;SDS011;3425;51.376;5.222;2024-02-16T06:47:06;1.83;;;1.73;;
6775;SDS011;3425;51.376;5.222;2024-02-16T06:49:33;1.60;;;1.60;;
6775;SDS011;3425;51.376;5.222;2024-02-16T06:52:01;1.50;;;1.50;;
6775;SDS011;3425;51.376;5.222;2024-02-16T06:54:28;1.60;;;1.58;;
6775;SDS011;3425;51.376;5.222;2024-02-16T06:56:55;1.75;;;1.75;;
6775;SDS011;3425;51.376;5.222;2024-02-16T06:59:23;4.15;;;2.05;;
6775;SDS011;3425;51.376;5.222;2024-02-16T07:01:50;2.13;;;2.03;;
6775;SDS011;3425;51.376;5.222;2024-02-16T07:04:17;1.55;;;1.55;;
6775;SDS011;3425;51.376;5.222;2024-02-16T07:06:45;4.68;;;2.00;;
6775;SDS011;3425;51.376;5.222;2024-02-16T07:09:12;15.55;;;2.15;;
6775;SDS011;3425;51.376;5.222;2024-02-16T07:11:41;5.75;;;2.72;;
6775;SDS011;3425;51.376;5.222;2024-02-16T07:14:08;2.03;;;1.92;;
6775;SDS011;3425;51.376;5.222;2024-02-16T07:16:36;2.58;;;2.47;;
6775;SDS011;3425;51.376;5.222;2024-02-16T07:19:03;2.50;;;2.40;;
6775;SDS011;3425;51.376;5.222;2024-02-16T07:21:31;2.13;;;2.13;;
6775;SDS011;3425;51.376;5.222;2024-02-16T07:23:59;1.80;;;1.80;;
6775;SDS011;3425;51.376;5.222;2024-02-16T07:26:26;2.03;;;1.92;;
6775;SDS011;3425;51.376;5.222;2024-02-16T07:28:55;1.90;;;1.90;;
6775;SDS011;3425;51.376;5.222;2024-02-16T07:31:22;2.13;;;2.13;;
6775;SDS011;3425;51.376;5.222;2024-02-16T07:33:50;2.63;;;2.53;;
6775;SDS011;3425;51.376;5.222;2024-02-16T07:36:17;2.20;;;2.10;;
6775;SDS011;3425;51.376;5.222;2024-02-16T07:38:45;2.00;;;2.00;;
6775;SDS011;3425;51.376;5.222;2024-02-16T07:41:12;1.90;;;1.90;;
6775;SDS011;3425;51.376;5.222;2024-02-16T07:43:40;1.70;;;1.70;;
6775;SDS011;3425;51.376;5.222;2024-02-16T07:46:07;2.10;;;2.10;;
6775;SDS011;3425;51.376;5.222;2024-02-16T07:48:34;2.55;;;2.42;;
6775;SDS011;3425;51.376;5.222;2024-02-16T07:51:02;2.97;;;2.78;;
6775;SDS011;3425;51.376;5.222;2024-02-16T07:53:30;2.42;;;2.33;;
6775;SDS011;3425;51.376;5.222;2024-02-16T07:55:58;2.20;;;2.20;;
6775;SDS011;3425;51.376;5.222;2024-02-16T07:58:25;2.50;;;2.40;;
6775;SDS011;3425;51.376;5.222;2024-02-16T08:00:53;2.28;;;2.28;;
6775;SDS011;3425;51.376;5.222;2024-02-16T08:03:21;3.50;;;3.40;;
6775;SDS011;3425;51.376;5.222;2024-02-16T08:05:49;3.55;;;3.35;;
6775;SDS011;3425;51.376;5.222;2024-02-16T08:08:16;3.10;;;3.00;;
6775;SDS011;3425;51.376;5.222;2024-02-16T08:10:44;3.83;;;3.60;;
6775;SDS011;3425;51.376;5.222;2024-02-16T08:13:11;2.75;;;2.65;;
6775;SDS011;3425;51.376;5.222;2024-02-16T08:15:38;3.85;;;3.65;;
6775;SDS011;3425;51.376;5.222;2024-02-16T08:18:06;3.20;;;3.10;;
6775;SDS011;3425;51.376;5.222;2024-02-16T08:20:33;3.30;;;3.20;;
6775;SDS011;3425;51.376;5.222;2024-02-16T08:23:01;3.92;;;3.72;;
6775;SDS011;3425;51.376;5.222;2024-02-16T08:25:28;3.70;;;3.60;;
6775;SDS011;3425;51.376;5.222;2024-02-16T08:27:56;3.50;;;3.40;;
6775;SDS011;3425;51.376;5.222;2024-02-16T08:30:24;3.80;;;3.60;;
6775;SDS011;3425;51.376;5.222;2024-02-16T08:32:52;4.55;;;4.35;;
6775;SDS011;3425;51.376;5.222;2024-02-16T08:35:20;3.97;;;3.78;;
6775;SDS011;3425;51.376;5.222;2024-02-16T08:37:48;4.68;;;4.38;;
6775;SDS011;3425;51.376;5.222;2024-02-16T08:40:15;4.28;;;4.07;;
6775;SDS011;3425;51.376;5.222;2024-02-16T08:42:43;4.75;;;4.55;;
6775;SDS011;3425;51.376;5.222;2024-02-16T08:45:10;4.80;;;4.60;;
6775;SDS011;3425;51.376;5.222;2024-02-16T08:47:39;4.60;;;4.40;;
6775;SDS011;3425;51.376;5.222;2024-02-16T08:50:07;5.20;;;5.00;;
6775;SDS011;3425;51.376;5.222;2024-02-16T08:52:34;14.27;;;7.07;;
6775;SDS011;3425;51.376;5.222;2024-02-16T08:55:01;6.00;;;5.45;;
6775;SDS011;3425;51.376;5.222;2024-02-16T08:57:29;5.10;;;4.90;;
6775;SDS011;3425;51.376;5.222;2024-02-16T08:59:58;5.13;;;4.90;;
6775;SDS011;3425;51.376;5.222;2024-02-16T09:02:26;6.05;;;5.57;;
6775;SDS011;3425;51.376;5.222;2024-02-16T09:04:53;5.10;;;4.90;;
6775;SDS011;3425;51.376;5.222;2024-02-16T09:07:21;5.47;;;5.28;;
6775;SDS011;3425;51.376;5.222;2024-02-16T09:09:49;5.20;;;5.00;;
6775;SDS011;3425;51.376;5.222;2024-02-16T09:12:16;6.78;;;6.10;;
6775;SDS011;3425;51.376;5.222;2024-02-16T09:14:43;5.40;;;5.20;;
6775;SDS011;3425;51.376;5.222;2024-02-16T09:17:10;5.93;;;5.57;;
6775;SDS011;3425;51.376;5.222;2024-02-16T09:19:39;5.22;;;5.03;;
6775;SDS011;3425;51.376;5.222;2024-02-16T09:22:06;5.10;;;4.90;;
6775;SDS011;3425;51.376;5.222;2024-02-16T09:24:34;5.68;;;5.45;;
6775;SDS011;3425;51.376;5.222;2024-02-16T09:27:03;5.07;;;4.88;;
6775;SDS011;3425;51.376;5.222;2024-02-16T09:29:31;6.35;;;5.93;;
6775;SDS011;3425;51.376;5.222;2024-02-16T09:31:59;5.15;;;4.95;;
6775;SDS011;3425;51.376;5.222;2024-02-16T09:34:27;4.93;;;4.72;;
6775;SDS011;3425;51.376;5.222;2024-02-16T09:36:54;4.70;;;4.50;;
6775;SDS011;3425;51.376;5.222;2024-02-16T09:39:22;4.68;;;4.47;;
6775;SDS011;3425;51.376;5.222;2024-02-16T09:41:49;7.07;;;4.30;;
6775;SDS011;3425;51.376;5.222;2024-02-16T09:44:18;5.53;;;5.28;;
6775;SDS011;3425;51.376;5.222;2024-02-16T09:46:47;5.47;;;5.28;;
6775;SDS011;3425;51.376;5.222;2024-02-16T09:49:17;6.28;;;5.97;;
6775;SDS011;3425;51.376;5.222;2024-02-16T09:51:54;12.52;;;11.93;;
6775;SDS011;3425;51.376;5.222;2024-02-16T09:54:23;20.30;;;16.98;;
6775;SDS011;3425;51.376;5.222;2024-02-16T09:56:51;18.35;;;17.45;;
6775;SDS011;3425;51.376;5.222;2024-02-16T09:59:19;22.10;;;21.00;;
6775;SDS011;3425;51.376;5.222;2024-02-16T10:01:46;24.73;;;23.42;;
6775;SDS011;3425;51.376;5.222;2024-02-16T10:04:13;27.83;;;26.35;;
6775;SDS011;3425;51.376;5.222;2024-02-16T10:06:47;31.77;;;29.98;;
6775;SDS011;3425;51.376;5.222;2024-02-16T10:09:25;31.40;;;29.70;;
6775;SDS011;3425;51.376;5.222;2024-02-16T10:11:52;32.78;;;30.98;;
6775;SDS011;3425;51.376;5.222;2024-02-16T10:14:20;33.97;;;32.15;;
6775;SDS011;3425;51.376;5.222;2024-02-16T10:16:47;33.83;;;31.92;;
6775;SDS011;3425;51.376;5.222;2024-02-16T10:19:17;37.70;;;35.60;;
6775;SDS011;3425;51.376;5.222;2024-02-16T10:21:45;36.22;;;34.22;;
6775;SDS011;3425;51.376;5.222;2024-02-16T10:24:12;37.05;;;34.97;;
6775;SDS011;3425;51.376;5.222;2024-02-16T10:26:41;34.20;;;32.35;;
6775;SDS011;3425;51.376;5.222;2024-02-16T10:29:09;31.52;;;29.83;;
6775;SDS011;3425;51.376;5.222;2024-02-16T10:31:40;19.48;;;18.40;;
6775;SDS011;3425;51.376;5.222;2024-02-16T10:34:07;10.35;;;9.85;;
6775;SDS011;3425;51.376;5.222;2024-02-16T10:36:36;8.90;;;8.35;;
6775;SDS011;3425;51.376;5.222;2024-02-16T10:39:05;9.77;;;9.27;;
6775;SDS011;3425;51.376;5.222;2024-02-16T10:41:35;9.13;;;8.73;;
6775;SDS011;3425;51.376;5.222;2024-02-16T10:44:03;10.30;;;9.80;;
6775;SDS011;3425;51.376;5.222;2024-02-16T10:46:30;8.40;;;8.00;;
6775;SDS011;3425;51.376;5.222;2024-02-16T10:48:58;8.95;;;8.55;;
6775;SDS011;3425;51.376;5.222;2024-02-16T10:51:36;8.50;;;8.07;;
6775;SDS011;3425;51.376;5.222;2024-02-16T10:54:05;8.75;;;8.35;;
6775;SDS011;3425;51.376;5.222;2024-02-16T10:56:34;9.90;;;8.77;;
6775;SDS011;3425;51.376;5.222;2024-02-16T10:59:02;9.50;;;8.40;;
6775;SDS011;3425;51.376;5.222;2024-02-16T11:01:43;9.45;;;8.90;;
6775;SDS011;3425;51.376;5.222;2024-02-16T11:04:11;9.30;;;8.70;;
6775;SDS011;3425;51.376;5.222;2024-02-16T11:09:36;8.60;;;8.10;;
6775;SDS011;3425;51.376;5.222;2024-02-16T11:12:04;8.70;;;8.30;;
6775;SDS011;3425;51.376;5.222;2024-02-16T11:14:35;8.98;;;8.50;;
6775;SDS011;3425;51.376;5.222;2024-02-16T11:17:09;9.30;;;8.70;;
6775;SDS011;3425;51.376;5.222;2024-02-16T11:19:47;8.77;;;8.27;;
6775;SDS011;3425;51.376;5.222;2024-02-16T11:22:15;9.48;;;8.98;;
6775;SDS011;3425;51.376;5.222;2024-02-16T11:24:44;9.85;;;8.98;;
6775;SDS011;3425;51.376;5.222;2024-02-16T11:27:11;10.60;;;9.65;;
6775;SDS011;3425;51.376;5.222;2024-02-16T11:29:39;9.63;;;9.18;;
6775;SDS011;3425;51.376;5.222;2024-02-16T11:32:07;11.05;;;10.40;;
6775;SDS011;3425;51.376;5.222;2024-02-16T11:34:34;11.07;;;10.57;;
6775;SDS011;3425;51.376;5.222;2024-02-16T11:37:04;14.07;;;13.27;;
6775;SDS011;3425;51.376;5.222;2024-02-16T11:39:31;14.05;;;13.35;;
6775;SDS011;3425;51.376;5.222;2024-02-16T11:42:04;14.10;;;13.32;;
6775;SDS011;3425;51.376;5.222;2024-02-16T11:44:33;14.52;;;13.40;;
6775;SDS011;3425;51.376;5.222;2024-02-16T11:47:01;13.80;;;13.10;;
6775;SDS011;3425;51.376;5.222;2024-02-16T11:49:29;13.30;;;12.70;;
6775;SDS011;3425;51.376;5.222;2024-02-16T11:51:59;14.10;;;13.40;;
6775;SDS011;3425;51.376;5.222;2024-02-16T11:54:27;13.02;;;12.43;;
6775;SDS011;3425;51.376;5.222;2024-02-16T11:56:54;14.13;;;13.43;;
6775;SDS011;3425;51.376;5.222;2024-02-16T11:59:21;14.00;;;13.30;;
6775;SDS011;3425;51.376;5.222;2024-02-16T12:04:23;13.77;;;13.00;;
6775;SDS011;3425;51.376;5.222;2024-02-16T12:06:51;14.10;;;13.35;;
6775;SDS011;3425;51.376;5.222;2024-02-16T12:09:19;14.50;;;13.80;;
6775;SDS011;3425;51.376;5.222;2024-02-16T12:11:50;15.98;;;15.18;;
6775;SDS011;3425;51.376;5.222;2024-02-16T12:14:18;21.35;;;20.02;;
6775;SDS011;3425;51.376;5.222;2024-02-16T12:16:49;25.75;;;24.33;;
6775;SDS011;3425;51.376;5.222;2024-02-16T12:19:16;27.90;;;26.40;;
6775;SDS011;3425;51.376;5.222;2024-02-16T12:21:45;23.35;;;22.15;;
6775;SDS011;3425;51.376;5.222;2024-02-16T12:24:15;20.63;;;19.52;;
6775;SDS011;3425;51.376;5.222;2024-02-16T12:26:42;20.42;;;19.42;;
6775;SDS011;3425;51.376;5.222;2024-02-16T12:29:09;20.70;;;19.60;;
6775;SDS011;3425;51.376;5.222;2024-02-16T12:31:40;21.33;;;20.23;;
6775;SDS011;3425;51.376;5.222;2024-02-16T12:34:07;23.45;;;21.80;;
6775;SDS011;3425;51.376;5.222;2024-02-16T12:36:35;25.63;;;24.13;;
6775;SDS011;3425;51.376;5.222;2024-02-16T12:39:03;25.15;;;23.65;;
6775;SDS011;3425;51.376;5.222;2024-02-16T12:41:30;24.38;;;23.08;;
6775;SDS011;3425;51.376;5.222;2024-02-16T12:43:57;23.73;;;22.52;;
6775;SDS011;3425;51.376;5.222;2024-02-16T12:46:25;24.65;;;23.27;;
6775;SDS011;3425;51.376;5.222;2024-02-16T12:48:52;26.92;;;25.35;;
6775;SDS011;3425;51.376;5.222;2024-02-16T12:51:20;30.95;;;29.25;;
6775;SDS011;3425;51.376;5.222;2024-02-16T12:53:47;58.97;;;55.28;;
6775;SDS011;3425;51.376;5.222;2024-02-16T12:56:15;71.70;;;66.75;;
6775;SDS011;3425;51.376;5.222;2024-02-16T12:58:42;79.50;;;73.80;;
6775;SDS011;3425;51.376;5.222;2024-02-16T13:01:09;83.13;;;77.13;;
6775;SDS011;3425;51.376;5.222;2024-02-16T13:03:51;82.63;;;76.63;;
6775;SDS011;3425;51.376;5.222;2024-02-16T13:06:18;82.97;;;76.97;;
6775;SDS011;3425;51.376;5.222;2024-02-16T13:08:52;79.72;;;74.13;;
6775;SDS011;3425;51.376;5.222;2024-02-16T13:11:20;77.82;;;72.35;;
6775;SDS011;3425;51.376;5.222;2024-02-16T13:13:47;75.63;;;70.35;;
6775;SDS011;3425;51.376;5.222;2024-02-16T13:16:14;75.68;;;70.45;;
6775;SDS011;3425;51.376;5.222;2024-02-16T13:18:41;73.47;;;68.57;;
6775;SDS011;3425;51.376;5.222;2024-02-16T13:21:09;71.45;;;66.75;;
6775;SDS011;3425;51.376;5.222;2024-02-16T13:23:36;70.35;;;65.78;;
6775;SDS011;3425;51.376;5.222;2024-02-16T13:26:04;61.50;;;57.75;;
6775;SDS011;3425;51.376;5.222;2024-02-16T13:28:32;54.55;;;51.25;;
6775;SDS011;3425;51.376;5.222;2024-02-16T13:30:59;43.85;;;41.35;;
6775;SDS011;3425;51.376;5.222;2024-02-16T13:33:27;38.92;;;36.72;;
6775;SDS011;3425;51.376;5.222;2024-02-16T13:35:54;44.45;;;41.85;;
6775;SDS011;3425;51.376;5.222;2024-02-16T13:38:22;38.35;;;36.15;;
6775;SDS011;3425;51.376;5.222;2024-02-16T13:40:49;35.50;;;33.50;;
6775;SDS011;3425;51.376;5.222;2024-02-16T13:43:16;33.72;;;31.83;;
6775;SDS011;3425;51.376;5.222;2024-02-16T13:45:54;32.70;;;30.90;;
6775;SDS011;3425;51.376;5.222;2024-02-16T13:48:24;29.50;;;27.90;;
6775;SDS011;3425;51.376;5.222;2024-02-16T13:50:53;29.58;;;27.85;;
6775;SDS011;3425;51.376;5.222;2024-02-16T13:53:22;25.92;;;24.42;;
6775;SDS011;3425;51.376;5.222;2024-02-16T13:55:50;24.85;;;23.55;;
6775;SDS011;3425;51.376;5.222;2024-02-16T13:58:17;22.58;;;21.38;;
6775;SDS011;3425;51.376;5.222;2024-02-16T14:00:44;23.80;;;22.60;;
6775;SDS011;3425;51.376;5.222;2024-02-16T14:03:12;21.35;;;20.25;;
6775;SDS011;3425;51.376;5.222;2024-02-16T14:05:41;21.10;;;19.80;;
6775;SDS011;3425;51.376;5.222;2024-02-16T14:08:11;20.42;;;19.15;;
6775;SDS011;3425;51.376;5.222;2024-02-16T14:10:39;18.70;;;17.80;;
6775;SDS011;3425;51.376;5.222;2024-02-16T14:13:06;19.70;;;18.60;;
6775;SDS011;3425;51.376;5.222;2024-02-16T14:15:33;18.15;;;17.15;;
6775;SDS011;3425;51.376;5.222;2024-02-16T14:18:01;16.80;;;16.00;;
6775;SDS011;3425;51.376;5.222;2024-02-16T14:20:39;15.95;;;15.15;;
6775;SDS011;3425;51.376;5.222;2024-02-16T14:23:06;15.60;;;14.80;;
6775;SDS011;3425;51.376;5.222;2024-02-16T14:25:35;14.63;;;13.93;;
6775;SDS011;3425;51.376;5.222;2024-02-16T14:28:04;14.52;;;13.82;;
6775;SDS011;3425;51.376;5.222;2024-02-16T14:30:32;14.90;;;14.20;;
6775;SDS011;3425;51.376;5.222;2024-02-16T14:33:00;14.07;;;13.38;;
6775;SDS011;3425;51.376;5.222;2024-02-16T14:35:31;13.90;;;13.13;;
6775;SDS011;3425;51.376;5.222;2024-02-16T14:38:03;13.80;;;13.10;;
6775;SDS011;3425;51.376;5.222;2024-02-16T14:40:33;14.13;;;13.43;;
6775;SDS011;3425;51.376;5.222;2024-02-16T14:43:01;13.95;;;13.25;;
6775;SDS011;3425;51.376;5.222;2024-02-16T14:45:28;13.48;;;12.88;;
6775;SDS011;3425;51.376;5.222;2024-02-16T14:47:56;12.50;;;11.90;;
6775;SDS011;3425;51.376;5.222;2024-02-16T14:50:24;13.60;;;12.80;;
6775;SDS011;3425;51.376;5.222;2024-02-16T14:52:51;12.63;;;12.02;;
6775;SDS011;3425;51.376;5.222;2024-02-16T14:55:18;12.40;;;11.73;;
6775;SDS011;3425;51.376;5.222;2024-02-16T14:57:46;12.13;;;11.52;;
6775;SDS011;3425;51.376;5.222;2024-02-16T15:00:13;11.25;;;10.75;;
6775;SDS011;3425;51.376;5.222;2024-02-16T15:02:41;11.80;;;11.23;;
6775;SDS011;3425;51.376;5.222;2024-02-16T15:05:09;10.85;;;10.35;;
6775;SDS011;3425;51.376;5.222;2024-02-16T15:07:36;11.90;;;11.30;;
6775;SDS011;3425;51.376;5.222;2024-02-16T15:10:04;10.70;;;10.20;;
6775;SDS011;3425;51.376;5.222;2024-02-16T15:12:32;10.85;;;10.35;;
6775;SDS011;3425;51.376;5.222;2024-02-16T15:14:59;11.20;;;10.70;;
6775;SDS011;3425;51.376;5.222;2024-02-16T15:17:27;11.00;;;10.50;;